Time;durP1;ratioP1;P1;durP2;ratioP2;P2;SDS_P1;SDS_P2;PMS_P1;PMS_P2;Temp;Humidity;BMP_temperature;BMP_pressure;BME280_temperature;BME280_humidity;BME280_pressure;Samples;Min_cycle;Max_cycle;Signal;HPM_P1;HPM_P2
2021/11/20 00:01:46;;;;;;;;;;;12.10;99.90;;;;;;5061525;28;19952;-83
2021/11/20 00:04:13;;;;;;;;;;;12.00;99.90;;;;;;5061426;28;19909;-82
2021/11/20 00:06:42;;;;;;;;;;;12.10;99.90;;;;;;5061360;28;19913;-82
2021/11/20 00:09:10;;;;;;;;;;;12.00;99.90;;;;;;5059790;28;19951;-83
2021/11/20 00:11:39;;;;;;;;;;;12.00;99.90;;;;;;5054608;28;19979;-84
2021/11/20 00:14:06;;;;;;;;;;;12.00;99.90;;;;;;5055418;28;19932;-84
2021/11/20 00:16:33;;;;;;;;;;;12.00;99.90;;;;;;5055725;28;19932;-84
2021/11/20 00:19:00;;;;;;;;;;;12.10;99.90;;;;;;5054720;28;19957;-83
2021/11/20 00:21:29;;;;;;;;;;;12.10;99.90;;;;;;5058973;28;19981;-84
2021/11/20 00:23:58;;;;;;;;;;;12.10;99.90;;;;;;5061380;28;20066;-83
2021/11/20 00:26:29;;;;;;;;;;;12.00;99.90;;;;;;5052583;28;19933;-84
2021/11/20 00:29:19;;;;;;;;;;;12.00;99.90;;;;;;5050710;28;20023;-85
2021/11/20 00:31:46;;;;;;;;;;;12.00;99.90;;;;;;5050001;28;20060;-84
2021/11/20 00:34:16;;;;;;;;;;;12.00;99.90;;;;;;5050346;28;19993;-84
2021/11/20 00:36:43;;;;;;;;;;;12.00;99.90;;;;;;5050535;28;19925;-84
2021/11/20 00:39:12;;;;;;;;;;;12.00;99.90;;;;;;5052382;28;19916;-84
2021/11/20 00:41:38;;;;;;;;;;;11.90;99.90;;;;;;5057405;28;19936;-83
2021/11/20 00:44:07;;;;;;;;;;;11.90;99.90;;;;;;5053248;28;19975;-84
2021/11/20 00:46:34;;;;;;;;;;;12.00;99.90;;;;;;5045508;28;20004;-84
2021/11/20 00:49:01;;;;;;;;;;;12.00;99.90;;;;;;5049368;28;19963;-84
2021/11/20 00:51:30;;;;;;;;;;;11.90;99.90;;;;;;5049858;28;19952;-84
2021/11/20 00:53:56;;;;;;;;;;;12.00;99.90;;;;;;5049291;28;19925;-85
2021/11/20 00:56:24;;;;;;;;;;;12.00;99.90;;;;;;5049042;28;19992;-85
2021/11/20 00:58:51;;;;;;;;;;;12.00;99.90;;;;;;5059063;28;19913;-84
2021/11/20 01:01:20;;;;;;;;;;;11.90;99.90;;;;;;5057428;28;19993;-84
2021/11/20 01:03:47;;;;;;;;;;;12.00;99.90;;;;;;5050965;28;19929;-85
2021/11/20 01:06:14;;;;;;;;;;;11.90;99.90;;;;;;5050283;28;19932;-85
2021/11/20 01:08:43;;;;;;;;;;;11.90;99.90;;;;;;5049952;28;20392;-84
2021/11/20 01:11:14;;;;;;;;;;;11.90;99.90;;;;;;5050671;28;19925;-84
2021/11/20 01:13:41;;;;;;;;;;;12.00;99.90;;;;;;5051478;28;19925;-84
2021/11/20 01:16:09;;;;;;;;;;;11.90;99.90;;;;;;5056463;28;19924;-84
2021/11/20 01:18:37;;;;;;;;;;;11.90;99.90;;;;;;5058977;28;19952;-84
2021/11/20 01:21:05;;;;;;;;;;;11.90;99.90;;;;;;5051720;28;19925;-84
2021/11/20 01:23:32;;;;;;;;;;;11.90;99.90;;;;;;5054771;28;19992;-84
2021/11/20 01:25:59;;;;;;;;;;;11.90;99.90;;;;;;5057126;28;19932;-84
2021/11/20 01:28:33;;;;;;;;;;;11.90;99.90;;;;;;5057515;28;19925;-84
2021/11/20 01:31:00;;;;;;;;;;;11.90;99.90;;;;;;5047459;28;19932;-84
2021/11/20 01:33:27;;;;;;;;;;;11.90;99.90;;;;;;5056767;28;19921;-83
2021/11/20 01:35:55;;;;;;;;;;;11.90;99.90;;;;;;5057943;28;19964;-83
2021/11/20 01:38:22;;;;;;;;;;;11.90;99.90;;;;;;5058016;28;19926;-85
2021/11/20 01:40:49;;;;;;;;;;;11.90;99.90;;;;;;5050333;28;19927;-85
2021/11/20 01:43:16;;;;;;;;;;;11.90;99.90;;;;;;5050600;28;20039;-84
2021/11/20 01:45:49;;;;;;;;;;;11.90;99.90;;;;;;5052954;28;19936;-84
2021/11/20 01:48:24;;;;;;;;;;;11.80;99.90;;;;;;5057733;28;19964;-84
2021/11/20 01:50:56;;;;;;;;;;;11.80;99.90;;;;;;5058595;28;19920;-84
2021/11/20 01:53:33;;;;;;;;;;;11.80;99.90;;;;;;5049569;28;19925;-84
2021/11/20 01:56:03;;;;;;;;;;;11.90;99.90;;;;;;5054427;28;20276;-84
2021/11/20 01:58:34;;;;;;;;;;;11.90;99.90;;;;;;5059412;28;19913;-84
2021/11/20 02:01:03;;;;;;;;;;;11.90;99.90;;;;;;5057893;28;19925;-84
2021/11/20 02:03:32;;;;;;;;;;;11.90;99.90;;;;;;5050283;28;19925;-84
2021/11/20 02:06:03;;;;;;;;;;;11.90;99.90;;;;;;5048371;28;19956;-84
2021/11/20 02:08:32;;;;;;;;;;;11.90;99.90;;;;;;5046763;28;19925;-84
2021/11/20 02:11:01;;;;;;;;;;;11.80;99.90;;;;;;5045903;28;20023;-84
2021/11/20 02:13:28;;;;;;;;;;;;;;;;;;5050864;28;19955;-84
2021/11/20 02:15:58;;;;;;;;;;;11.80;99.90;;;;;;5057848;28;19925;-83
2021/11/20 02:18:26;;;;;;;;;;;11.90;99.90;;;;;;5056799;28;19925;-86
2021/11/20 02:20:54;;;;;;;;;;;11.90;99.90;;;;;;5050976;28;19925;-83
2021/11/20 02:23:21;;;;;;;;;;;11.90;99.90;;;;;;5054982;28;19925;-83
2021/11/20 02:25:49;;;;;;;;;;;11.90;99.90;;;;;;5049858;28;19992;-84
2021/11/20 02:28:17;;;;;;;;;;;12.40;99.90;;;;;;5049287;28;20285;-83
2021/11/20 02:30:46;;;;;;;;;;;11.90;99.90;;;;;;5048069;28;20348;-84
2021/11/20 02:33:13;;;;;;;;;;;11.70;99.90;;;;;;5048088;28;19975;-84
2021/11/20 02:35:41;;;;;;;;;;;11.90;99.90;;;;;;5048000;28;19925;-84
2021/11/20 02:38:10;;;;;;;;;;;11.80;99.90;;;;;;5047881;28;19929;-84
2021/11/20 02:40:37;;;;;;;;;;;11.90;99.90;;;;;;5048448;28;19971;-84
2021/11/20 02:43:04;;;;;;;;;;;11.80;99.90;;;;;;5047733;28;19968;-85
2021/11/20 02:45:32;;;;;;;;;;;11.90;99.90;;;;;;5047927;28;20436;-85
2021/11/20 02:48:01;;;;;;;;;;;11.90;99.90;;;;;;5047904;28;19972;-84
2021/11/20 02:50:29;;;;;;;;;;;11.80;99.90;;;;;;5047449;28;19932;-84
2021/11/20 02:52:56;;;;;;;;;;;11.80;99.90;;;;;;5047456;28;19932;-83
2021/11/20 02:55:23;;;;;;;;;;;11.90;99.90;;;;;;5047657;28;19932;-85
2021/11/20 02:57:50;;;;;;;;;;;11.80;99.90;;;;;;5053080;28;19972;-83
2021/11/20 03:00:18;;;;;;;;;;;11.80;99.90;;;;;;5054900;28;19956;-85
2021/11/20 03:02:45;;;;;;;;;;;11.80;99.90;;;;;;5048992;28;19924;-83
2021/11/20 03:05:13;;;;;;;;;;;11.90;99.90;;;;;;5049063;28;19925;-84
2021/11/20 03:07:40;;;;;;;;;;;11.80;99.90;;;;;;5048797;28;20419;-84
2021/11/20 03:10:30;;;;;;;;;;;11.70;99.90;;;;;;5051247;28;19952;-85
2021/11/20 03:12:57;;;;;;;;;;;11.70;99.90;;;;;;5049535;28;19932;-85
2021/11/20 03:15:23;;;;;;;;;;;11.70;99.90;;;;;;5050512;28;19925;-85
2021/11/20 03:17:50;;;;;;;;;;;11.70;99.90;;;;;;5049979;28;19953;-83
2021/11/20 03:20:19;;;;;;;;;;;11.70;99.90;;;;;;5049718;28;19953;-85
2021/11/20 03:22:48;;;;;;;;;;;11.70;99.90;;;;;;5048614;28;19952;-84
2021/11/20 03:25:15;;;;;;;;;;;11.60;99.90;;;;;;5047959;28;19936;-84
2021/11/20 03:27:42;;;;;;;;;;;11.60;99.90;;;;;;5046171;28;19925;-84
2021/11/20 03:30:09;;;;;;;;;;;11.60;99.90;;;;;;5040380;28;19975;-84
2021/11/20 03:32:36;;;;;;;;;;;11.50;99.90;;;;;;5050155;28;19952;-84
2021/11/20 03:35:03;;;;;;;;;;;11.50;99.90;;;;;;5054975;28;20004;-83
2021/11/20 03:37:32;;;;;;;;;;;11.50;99.90;;;;;;5056234;28;19915;-84
2021/11/20 03:39:58;;;;;;;;;;;11.40;99.90;;;;;;5056302;28;19929;-84
2021/11/20 03:42:25;;;;;;;;;;;11.50;99.90;;;;;;5051621;28;20064;-84
2021/11/20 03:44:52;;;;;;;;;;;11.50;99.90;;;;;;5045235;28;19925;-84
2021/11/20 03:47:19;;;;;;;;;;;11.50;99.90;;;;;;5056627;28;19929;-84
2021/11/20 03:49:45;;;;;;;;;;;11.40;99.90;;;;;;5056134;28;19925;-83
2021/11/20 03:52:13;;;;;;;;;;;11.40;99.90;;;;;;5055071;28;19929;-83
2021/11/20 03:54:41;;;;;;;;;;;11.40;99.90;;;;;;5050317;28;19936;-84
2021/11/20 03:57:08;;;;;;;;;;;11.40;99.90;;;;;;5054152;28;19932;-83
2021/11/20 03:59:34;;;;;;;;;;;11.40;99.90;;;;;;5055306;28;19936;-83
2021/11/20 04:02:02;;;;;;;;;;;11.40;99.90;;;;;;5049269;28;19967;-83
2021/11/20 04:04:29;;;;;;;;;;;11.30;99.90;;;;;;5052351;28;19929;-84
2021/11/20 04:06:55;;;;;;;;;;;11.30;99.90;;;;;;5049576;28;19971;-83
2021/11/20 04:09:22;;;;;;;;;;;11.30;99.90;;;;;;5060904;28;19924;-82
2021/11/20 04:11:51;;;;;;;;;;;11.30;99.90;;;;;;5061280;28;19925;-82
2021/11/20 04:14:20;;;;;;;;;;;11.30;99.90;;;;;;5061333;28;19933;-83
2021/11/20 04:16:47;;;;;;;;;;;11.30;99.90;;;;;;5061364;28;19921;-83
2021/11/20 04:19:13;;;;;;;;;;;11.40;99.90;;;;;;5060790;28;19913;-82
2021/11/20 04:21:40;;;;;;;;;;;11.40;99.90;;;;;;5090699;23;19925;-79
2021/11/20 04:24:07;;;;;;;;;;;11.30;99.90;;;;;;5056702;28;19925;-79
2021/11/20 04:26:34;;;;;;;;;;;11.30;99.90;;;;;;5046144;28;20016;-81
2021/11/20 04:29:02;;;;;;;;;;;11.40;99.90;;;;;;5044312;28;19985;-82
2021/11/20 04:31:28;;;;;;;;;;;11.40;99.90;;;;;;5042215;28;19939;-81
2021/11/20 04:33:55;;;;;;;;;;;11.30;99.90;;;;;;5040687;28;19929;-81
2021/11/20 04:36:23;;;;;;;;;;;11.50;99.90;;;;;;5040365;28;20016;-81
2021/11/20 04:38:50;;;;;;;;;;;11.40;99.90;;;;;;5044542;28;20000;-82
2021/11/20 04:41:17;;;;;;;;;;;11.30;99.90;;;;;;5054035;28;19960;-82
2021/11/20 04:43:44;;;;;;;;;;;11.30;99.90;;;;;;5054472;28;20356;-80
2021/11/20 04:46:12;;;;;;;;;;;11.30;99.90;;;;;;5052886;28;19925;-82
2021/11/20 04:48:39;;;;;;;;;;;11.30;99.90;;;;;;5059973;28;19913;-79
2021/11/20 04:51:06;;;;;;;;;;;11.30;99.90;;;;;;5058299;28;19935;-80
2021/11/20 04:53:34;;;;;;;;;;;11.40;99.90;;;;;;5046926;28;19956;-81
2021/11/20 04:56:03;;;;;;;;;;;11.30;99.90;;;;;;5057181;28;19913;-80
2021/11/20 04:58:30;;;;;;;;;;;11.40;99.90;;;;;;5059992;28;19913;-79
2021/11/20 05:00:58;;;;;;;;;;;11.30;99.90;;;;;;5049975;28;19925;-81
2021/11/20 05:03:26;;;;;;;;;;;11.30;99.90;;;;;;5044615;28;19960;-79
2021/11/20 05:05:54;;;;;;;;;;;11.30;99.90;;;;;;5051774;28;19925;-81
2021/11/20 05:08:22;;;;;;;;;;;11.30;99.90;;;;;;5056785;28;19924;-81
2021/11/20 05:10:50;;;;;;;;;;;11.30;99.90;;;;;;5057921;28;19913;-80
2021/11/20 05:13:17;;;;;;;;;;;11.30;99.90;;;;;;5054916;28;19932;-82
2021/11/20 05:15:44;;;;;;;;;;;11.30;99.90;;;;;;5055485;28;19988;-80
2021/11/20 05:18:12;;;;;;;;;;;11.40;99.90;;;;;;5051563;28;19925;-82
2021/11/20 05:20:40;;;;;;;;;;;11.40;99.90;;;;;;5048240;28;19968;-82
2021/11/20 05:23:07;;;;;;;;;;;11.40;99.90;;;;;;5042457;28;20051;-83
2021/11/20 05:25:34;;;;;;;;;;;11.40;99.90;;;;;;5042985;28;19931;-81
2021/11/20 05:28:00;;;;;;;;;;;11.30;99.90;;;;;;5041282;28;20039;-83
2021/11/20 05:30:30;;;;;;;;;;;11.30;99.90;;;;;;5044989;28;20024;-83
2021/11/20 05:32:57;;;;;;;;;;;11.30;99.90;;;;;;5044363;28;19999;-82
2021/11/20 05:35:25;;;;;;;;;;;11.30;99.90;;;;;;5044031;28;19925;-82
2021/11/20 05:37:53;;;;;;;;;;;11.30;99.90;;;;;;5041744;28;19996;-83
2021/11/20 05:40:20;;;;;;;;;;;11.30;99.90;;;;;;5041044;28;19960;-84
2021/11/20 05:42:48;;;;;;;;;;;11.20;99.90;;;;;;5041093;28;19929;-82
2021/11/20 05:45:15;;;;;;;;;;;11.20;99.90;;;;;;5040512;28;19925;-83
2021/11/20 05:47:42;;;;;;;;;;;11.30;99.90;;;;;;5042269;28;19932;-80
2021/11/20 05:50:09;;;;;;;;;;;11.30;99.90;;;;;;5046091;28;20008;-84
2021/11/20 05:52:36;;;;;;;;;;;11.30;99.90;;;;;;5048386;28;19968;-81
2021/11/20 05:55:06;;;;;;;;;;;11.30;99.90;;;;;;5049805;28;19967;-80
2021/11/20 05:57:33;;;;;;;;;;;11.30;99.90;;;;;;5058272;28;19909;-82
2021/11/20 06:00:00;;;;;;;;;;;11.20;99.90;;;;;;5057661;28;19920;-81
2021/11/20 06:02:26;;;;;;;;;;;11.20;99.90;;;;;;5052530;28;20024;-83
2021/11/20 06:04:53;;;;;;;;;;;11.30;99.90;;;;;;5041657;28;20423;-84
2021/11/20 06:07:20;;;;;;;;;;;11.30;99.90;;;;;;5042528;28;20020;-83
2021/11/20 06:09:47;;;;;;;;;;;11.30;99.90;;;;;;5049838;28;19925;-82
2021/11/20 06:12:15;;;;;;;;;;;11.30;99.90;;;;;;5048846;28;20395;-82
2021/11/20 06:14:42;;;;;;;;;;;11.30;99.90;;;;;;5043887;28;20360;-82
2021/11/20 06:17:08;;;;;;;;;;;11.30;99.90;;;;;;5041312;28;19965;-81
2021/11/20 06:19:35;;;;;;;;;;;11.30;99.90;;;;;;5040341;28;19971;-81
2021/11/20 06:22:02;;;;;;;;;;;11.30;99.90;;;;;;5040508;28;19964;-82
2021/11/20 06:24:29;;;;;;;;;;;11.30;99.90;;;;;;5039976;28;19926;-82
2021/11/20 06:26:56;;;;;;;;;;;11.30;99.90;;;;;;5050081;28;19925;-79
2021/11/20 06:29:24;;;;;;;;;;;11.30;99.90;;;;;;5054759;28;19981;-82
2021/11/20 06:31:51;;;;;;;;;;;11.30;99.90;;;;;;5052127;28;19925;-80
2021/11/20 06:34:18;;;;;;;;;;;11.30;99.90;;;;;;5040022;28;19963;-82
2021/11/20 06:36:44;;;;;;;;;;;11.20;99.90;;;;;;5043540;28;20367;-80
2021/11/20 06:39:11;;;;;;;;;;;11.20;99.90;;;;;;5047517;28;19964;-82
2021/11/20 06:41:38;;;;;;;;;;;11.20;99.90;;;;;;5054770;28;19948;-81
2021/11/20 06:44:05;;;;;;;;;;;11.10;99.90;;;;;;5053486;28;19920;-83
2021/11/20 06:46:33;;;;;;;;;;;11.20;99.90;;;;;;5052063;28;20371;-82
2021/11/20 06:49:00;;;;;;;;;;;11.10;99.90;;;;;;5053132;28;19960;-80
2021/11/20 06:51:27;;;;;;;;;;;11.10;99.90;;;;;;5055144;28;19959;-79
2021/11/20 06:53:53;;;;;;;;;;;11.10;99.90;;;;;;5055031;28;19925;-80
2021/11/20 06:56:27;;;;;;;;;;;11.00;99.90;;;;;;5052078;28;19943;-81
2021/11/20 06:59:07;;;;;;;;;;;11.00;99.90;;;;;;5054687;28;19913;-82
2021/11/20 07:01:36;;;;;;;;;;;11.00;99.90;;;;;;5051940;28;19919;-81
2021/11/20 07:04:04;;;;;;;;;;;11.00;99.90;;;;;;5053178;28;19992;-82
2021/11/20 07:06:33;;;;;;;;;;;11.00;99.90;;;;;;5053339;28;19961;-80
2021/11/20 07:09:00;;;;;;;;;;;10.90;99.90;;;;;;5051127;28;19925;-82
2021/11/20 07:11:27;;;;;;;;;;;10.90;99.90;;;;;;5049530;28;19933;-81
2021/11/20 07:13:55;;;;;;;;;;;10.90;99.90;;;;;;5041233;28;19947;-83
2021/11/20 07:16:22;;;;;;;;;;;10.90;99.90;;;;;;5041386;28;19929;-81
2021/11/20 07:18:50;;;;;;;;;;;10.90;99.90;;;;;;5041399;28;20380;-82
2021/11/20 07:21:18;;;;;;;;;;;10.90;99.90;;;;;;5039042;28;20016;-81
2021/11/20 07:23:44;;;;;;;;;;;10.90;99.90;;;;;;5040198;28;20346;-83
2021/11/20 07:26:13;;;;;;;;;;;10.90;99.90;;;;;;5039626;28;19964;-84
2021/11/20 07:28:40;;;;;;;;;;;10.90;99.90;;;;;;5037677;28;19971;-82
2021/11/20 07:31:07;;;;;;;;;;;10.90;99.90;;;;;;5039609;28;19925;-82
2021/11/20 07:33:33;;;;;;;;;;;10.90;99.90;;;;;;5040577;28;19956;-82
2021/11/20 07:36:03;;;;;;;;;;;10.90;99.90;;;;;;5040164;28;19975;-83
2021/11/20 07:38:31;;;;;;;;;;;10.90;99.90;;;;;;5041010;28;19925;-82
2021/11/20 07:40:58;;;;;;;;;;;10.90;99.90;;;;;;5043217;28;20016;-81
2021/11/20 07:43:25;;;;;;;;;;;10.90;99.90;;;;;;5043351;28;19965;-82
2021/11/20 07:45:51;;;;;;;;;;;11.00;99.90;;;;;;5043643;28;19925;-83
2021/11/20 07:48:19;;;;;;;;;;;11.00;99.90;;;;;;5042702;28;19940;-82
2021/11/20 07:50:46;;;;;;;;;;;10.90;99.90;;;;;;5043352;28;20019;-82
2021/11/20 07:53:16;;;;;;;;;;;10.90;99.90;;;;;;5044717;28;19925;-82
2021/11/20 07:55:43;;;;;;;;;;;10.90;99.90;;;;;;5045823;28;19925;-83
2021/11/20 07:58:10;;;;;;;;;;;10.90;99.90;;;;;;5043800;28;19979;-82
2021/11/20 08:00:38;;;;;;;;;;;10.90;99.90;;;;;;5045685;28;20284;-82
2021/11/20 08:03:06;;;;;;;;;;;10.80;99.90;;;;;;5046057;28;19979;-82
2021/11/20 08:05:32;;;;;;;;;;;10.90;99.90;;;;;;5056512;28;19977;-82
2021/11/20 08:07:59;;;;;;;;;;;10.90;99.90;;;;;;5060436;28;19956;-81
2021/11/20 08:10:28;;;;;;;;;;;10.90;99.90;;;;;;5053007;28;19925;-83
2021/11/20 08:12:55;;;;;;;;;;;10.90;99.90;;;;;;5051467;28;19951;-83
2021/11/20 08:15:22;;;;;;;;;;;10.80;99.90;;;;;;5061010;28;19913;-83
2021/11/20 08:17:48;;;;;;;;;;;10.90;99.90;;;;;;5055187;28;19926;-80
2021/11/20 08:20:16;;;;;;;;;;;10.90;99.90;;;;;;5044209;28;19960;-82
2021/11/20 08:22:43;;;;;;;;;;;10.80;99.90;;;;;;5043820;28;19971;-81
2021/11/20 08:25:11;;;;;;;;;;;10.90;99.90;;;;;;5042757;28;19925;-82
2021/11/20 08:27:39;;;;;;;;;;;10.80;99.90;;;;;;5043014;28;20005;-82
2021/11/20 08:30:07;;;;;;;;;;;11.00;99.90;;;;;;5042467;28;19992;-82
2021/11/20 08:32:33;;;;;;;;;;;11.00;99.90;;;;;;5045221;28;19910;-79
2021/11/20 08:35:02;;;;;;;;;;;11.00;99.90;;;;;;5055392;28;19925;-82
2021/11/20 08:37:30;;;;;;;;;;;11.00;99.90;;;;;;5057712;28;19925;-82
2021/11/20 08:39:58;;;;;;;;;;;11.00;99.90;;;;;;5045415;28;19972;-83
2021/11/20 08:42:26;;;;;;;;;;;11.10;99.90;;;;;;5043307;28;20012;-83
2021/11/20 08:44:54;;;;;;;;;;;11.00;99.90;;;;;;5042395;28;19925;-83
2021/11/20 08:47:21;;;;;;;;;;;11.00;99.90;;;;;;5044203;28;20017;-81
2021/11/20 08:49:48;;;;;;;;;;;11.10;99.90;;;;;;5042587;28;19939;-82
2021/11/20 08:52:15;;;;;;;;;;;11.10;99.90;;;;;;5044966;28;20367;-82
2021/11/20 08:54:42;;;;;;;;;;;11.10;99.90;;;;;;5042747;28;19948;-83
2021/11/20 08:57:08;;;;;;;;;;;11.20;99.90;;;;;;5052312;28;19952;-80
2021/11/20 08:59:36;;;;;;;;;;;11.30;99.90;;;;;;5049345;28;20031;-82
2021/11/20 09:02:09;;;;;;;;;;;11.30;99.90;;;;;;5046913;28;19925;-82
2021/11/20 09:04:39;;;;;;;;;;;11.40;99.90;;;;;;5044755;28;19992;-83
2021/11/20 09:07:10;;;;;;;;;;;11.40;99.90;;;;;;5043842;28;20027;-83
2021/11/20 09:09:38;;;;;;;;;;;11.40;99.90;;;;;;5045516;28;20395;-83
2021/11/20 09:12:08;;;;;;;;;;;11.40;99.90;;;;;;5042649;28;19964;-83
2021/11/20 09:14:36;;;;;;;;;;;11.50;99.90;;;;;;5043037;28;19943;-83
2021/11/20 09:17:05;;;;;;;;;;;11.60;99.90;;;;;;5048478;28;19984;-83
2021/11/20 09:19:32;;;;;;;;;;;11.60;99.90;;;;;;5045773;28;19925;-80
2021/11/20 09:22:00;;;;;;;;;;;11.40;99.90;;;;;;5048434;28;20016;-83
2021/11/20 09:24:28;;;;;;;;;;;11.60;99.90;;;;;;5045719;28;19989;-83
2021/11/20 09:26:55;;;;;;;;;;;11.70;99.90;;;;;;5046879;28;19980;-83
2021/11/20 09:29:23;;;;;;;;;;;11.70;99.90;;;;;;5045682;28;19936;-83
2021/11/20 09:31:50;;;;;;;;;;;11.70;99.90;;;;;;5047998;28;19989;-82
2021/11/20 09:34:18;;;;;;;;;;;11.70;99.90;;;;;;5054240;28;19925;-82
2021/11/20 09:36:45;;;;;;;;;;;11.80;99.90;;;;;;5055905;28;19926;-80
2021/11/20 09:39:13;;;;;;;;;;;11.80;99.90;;;;;;5053473;28;19929;-81
2021/11/20 09:41:44;;;;;;;;;;;11.80;99.90;;;;;;5044949;28;19972;-83
2021/11/20 09:44:11;;;;;;;;;;;11.90;99.90;;;;;;5046932;28;19925;-81
2021/11/20 09:46:44;;;;;;;;;;;11.90;99.90;;;;;;5045617;28;20378;-84
2021/11/20 09:49:13;;;;;;;;;;;11.90;99.90;;;;;;5045524;28;19948;-83
2021/11/20 09:51:42;;;;;;;;;;;11.90;99.90;;;;;;5045338;28;19961;-83
2021/11/20 09:54:10;;;;;;;;;;;11.90;99.90;;;;;;5052316;28;19996;-82
2021/11/20 09:56:41;;;;;;;;;;;11.90;99.90;;;;;;5044500;28;19961;-83
2021/11/20 09:59:25;;;;;;;;;;;12.00;99.90;;;;;;5046498;28;19929;-83
2021/11/20 10:01:56;;;;;;;;;;;12.20;99.90;;;;;;5043166;28;19975;-83
2021/11/20 10:04:27;;;;;;;;;;;11.90;99.90;;;;;;5043100;28;19980;-81
2021/11/20 10:07:07;;;;;;;;;;;11.90;99.90;;;;;;5042208;28;19925;-81
2021/11/20 10:09:35;;;;;;;;;;;11.90;99.90;;;;;;5042511;28;20402;-82
2021/11/20 10:12:04;;;;;;;;;;;12.00;99.90;;;;;;5044715;28;20000;-83
2021/11/20 10:14:34;;;;;;;;;;;12.00;99.90;;;;;;5045575;28;19926;-82
2021/11/20 10:17:03;;;;;;;;;;;12.00;99.90;;;;;;5048173;28;20067;-80
2021/11/20 10:19:45;;;;;;;;;;;12.00;99.90;;;;;;5047564;28;19948;-83
2021/11/20 10:22:19;;;;;;;;;;;12.00;99.90;;;;;;5083678;23;20015;-84
2021/11/20 10:25:00;;;;;;;;;;;12.30;99.90;;;;;;5075614;28;19925;-84
2021/11/20 10:27:34;;;;;;;;;;;12.00;99.90;;;;;;5074076;28;19932;-82
2021/11/20 10:30:07;;;;;;;;;;;12.30;99.90;;;;;;5069464;28;19987;-85
2021/11/20 10:32:39;;;;;;;;;;;12.30;99.90;;;;;;5070399;28;19977;-87
2021/11/20 10:35:16;;;;;;;;;;;12.30;99.90;;;;;;5068100;28;19925;-85
2021/11/20 10:37:46;;;;;;;;;;;12.20;99.90;;;;;;5069077;28;19929;-85
2021/11/20 10:40:22;;;;;;;;;;;12.30;99.90;;;;;;5067957;28;20290;-84
2021/11/20 10:43:04;;;;;;;;;;;12.20;99.90;;;;;;5068970;28;19925;-84
2021/11/20 10:45:36;;;;;;;;;;;12.20;99.90;;;;;;5069610;28;19972;-87
2021/11/20 10:48:07;;;;;;;;;;;12.10;99.90;;;;;;5069729;28;19995;-85
2021/11/20 10:50:36;;;;;;;;;;;12.20;99.90;;;;;;5068993;28;19948;-84
2021/11/20 10:53:21;;;;;;;;;;;12.20;99.90;;;;;;5067945;28;19959;-85
2021/11/20 10:55:50;;;;;;;;;;;12.10;99.90;;;;;;5069410;28;19964;-84
2021/11/20 10:58:36;;;;;;;;;;;12.10;99.90;;;;;;5078345;28;19939;-84
2021/11/20 11:01:15;;;;;;;;;;;12.00;99.90;;;;;;5077410;28;19960;-84
2021/11/20 11:03:43;;;;;;;;;;;12.10;99.90;;;;;;5077289;28;19925;-84
2021/11/20 11:06:30;;;;;;;;;;;12.00;99.90;;;;;;5067026;28;19960;-83
2021/11/20 11:09:00;;;;;;;;;;;12.10;99.90;;;;;;5071421;28;20399;-85
2021/11/20 11:11:28;;;;;;;;;;;12.00;99.90;;;;;;5066682;28;19989;-85
2021/11/20 11:14:10;;;;;;;;;;;12.00;99.90;;;;;;5065259;28;19924;-84
2021/11/20 11:16:38;;;;;;;;;;;12.00;99.90;;;;;;5067820;28;19924;-84
2021/11/20 11:19:09;;;;;;;;;;;12.10;99.90;;;;;;5076318;28;19915;-84
2021/11/20 11:21:55;;;;;;;;;;;12.10;99.90;;;;;;5076796;28;19924;-84
2021/11/20 11:24:44;;;;;;;;;;;12.10;99.90;;;;;;5076960;28;19908;-85
2021/11/20 11:27:13;;;;;;;;;;;12.20;99.90;;;;;;5073520;28;19971;-84
2021/11/20 11:30:00;;;;;;;;;;;12.10;99.90;;;;;;5076598;28;19947;-84
2021/11/20 11:32:28;;;;;;;;;;;12.00;99.90;;;;;;5071805;28;19924;-83
2021/11/20 11:34:56;;;;;;;;;;;12.10;99.90;;;;;;5074920;28;19925;-84
2021/11/20 11:37:29;;;;;;;;;;;12.10;99.90;;;;;;5072851;28;19929;-86
2021/11/20 11:39:59;;;;;;;;;;;12.10;99.90;;;;;;5073724;28;19916;-84
2021/11/20 11:42:36;;;;;;;;;;;12.10;99.90;;;;;;5074935;28;19925;-85
2021/11/20 11:45:07;;;;;;;;;;;12.10;99.90;;;;;;5078223;28;20003;-86
2021/11/20 11:47:37;;;;;;;;;;;12.00;99.90;;;;;;5076251;28;20272;-85
2021/11/20 11:50:33;;;;;;;;;;;12.10;99.90;;;;;;5071615;28;19932;-84
2021/11/20 11:53:11;;;;;;;;;;;12.00;99.90;;;;;;5069645;28;19952;-84
2021/11/20 11:55:43;;;;;;;;;;;12.00;99.90;;;;;;5068049;28;19924;-85
2021/11/20 11:58:35;;;;;;;;;;;12.00;99.90;;;;;;5067976;28;19975;-85
2021/11/20 12:01:11;;;;;;;;;;;12.00;99.90;;;;;;5068154;28;19925;-85
2021/11/20 12:03:40;;;;;;;;;;;12.00;99.90;;;;;;5072357;28;20392;-85
2021/11/20 12:06:16;;;;;;;;;;;11.90;99.90;;;;;;5067834;28;19935;-85
2021/11/20 12:08:44;;;;;;;;;;;12.00;99.90;;;;;;5069827;28;19997;-84
2021/11/20 12:11:13;;;;;;;;;;;12.00;99.90;;;;;;5069540;28;19963;-85
2021/11/20 12:13:42;;;;;;;;;;;12.00;99.90;;;;;;5068319;28;19959;-85
2021/11/20 12:16:14;;;;;;;;;;;11.70;99.90;;;;;;5068706;28;19925;-84
2021/11/20 12:18:55;;;;;;;;;;;11.90;99.90;;;;;;5068072;28;19924;-85
2021/11/20 12:21:26;;;;;;;;;;;12.00;99.90;;;;;;5067381;28;20003;-85
2021/11/20 12:23:55;;;;;;;;;;;11.90;99.90;;;;;;5071297;28;19947;-84
2021/11/20 12:26:29;;;;;;;;;;;11.90;99.90;;;;;;5070093;28;19987;-84
2021/11/20 12:29:16;;;;;;;;;;;11.90;99.90;;;;;;5070222;28;19932;-84
2021/11/20 12:31:57;;;;;;;;;;;11.90;99.90;;;;;;5044849;28;19975;-84
2021/11/20 12:34:32;;;;;;;;;;;12.00;99.90;;;;;;5071528;28;19935;-84
2021/11/20 12:37:19;;;;;;;;;;;11.90;99.90;;;;;;5074674;28;19925;-83
2021/11/20 12:40:01;;;;;;;;;;;12.00;99.90;;;;;;5065742;28;19990;-84
2021/11/20 12:42:37;;;;;;;;;;;11.90;99.90;;;;;;5076556;28;19924;-82
2021/11/20 12:45:23;;;;;;;;;;;12.00;99.90;;;;;;5076681;28;19925;-86
2021/11/20 12:47:58;;;;;;;;;;;12.00;99.90;;;;;;5080828;28;19932;-84
2021/11/20 12:50:28;;;;;;;;;;;12.00;99.90;;;;;;5079923;28;19936;-84
2021/11/20 12:52:57;;;;;;;;;;;12.10;99.90;;;;;;5072483;28;19932;-84
2021/11/20 12:55:35;;;;;;;;;;;12.10;99.90;;;;;;5077932;28;20003;-84
2021/11/20 12:58:09;;;;;;;;;;;12.10;99.90;;;;;;5078179;28;19971;-84
2021/11/20 13:00:38;;;;;;;;;;;12.00;99.90;;;;;;5076018;28;19931;-83
2021/11/20 13:03:06;;;;;;;;;;;12.10;99.90;;;;;;5079002;28;20019;-84
2021/11/20 13:05:34;;;;;;;;;;;12.10;99.90;;;;;;5078553;28;19968;-84
2021/11/20 13:08:02;;;;;;;;;;;12.00;99.90;;;;;;5075089;28;19915;-84
2021/11/20 13:10:32;;;;;;;;;;;12.00;99.90;;;;;;5071244;28;19932;-84
2021/11/20 13:13:06;;;;;;;;;;;12.10;99.90;;;;;;5072305;28;19925;-86
2021/11/20 13:15:38;;;;;;;;;;;12.00;99.90;;;;;;5073398;28;19912;-85
2021/11/20 13:18:19;;;;;;;;;;;12.00;99.90;;;;;;5073747;28;19984;-84
2021/11/20 13:20:54;;;;;;;;;;;12.00;99.90;;;;;;5074758;28;19960;-86
2021/11/20 13:23:22;;;;;;;;;;;12.00;99.90;;;;;;5069961;28;19968;-85
2021/11/20 13:25:56;;;;;;;;;;;12.00;99.90;;;;;;5069573;28;19931;-84
2021/11/20 13:28:24;;;;;;;;;;;12.10;99.90;;;;;;5062496;28;19924;-83
2021/11/20 13:30:51;;;;;;;;;;;12.00;99.90;;;;;;5071731;28;20032;-83
2021/11/20 13:33:17;;;;;;;;;;;12.00;99.90;;;;;;5065432;28;20260;-84
2021/11/20 13:35:44;;;;;;;;;;;12.00;99.90;;;;;;5063568;28;19929;-83
2021/11/20 13:38:12;;;;;;;;;;;12.00;99.90;;;;;;5064644;28;19925;-83
2021/11/20 13:40:40;;;;;;;;;;;12.00;99.90;;;;;;5077706;28;19951;-84
2021/11/20 13:43:11;;;;;;;;;;;12.00;99.90;;;;;;5076638;28;19916;-84
2021/11/20 13:45:40;;;;;;;;;;;12.00;99.90;;;;;;5074947;28;19925;-85
2021/11/20 13:48:06;;;;;;;;;;;11.90;99.90;;;;;;5073686;28;20330;-84
2021/11/20 13:50:38;;;;;;;;;;;11.90;99.90;;;;;;5071779;28;19936;-84
2021/11/20 13:53:06;;;;;;;;;;;12.00;99.90;;;;;;5075146;28;19975;-84
2021/11/20 13:55:34;;;;;;;;;;;12.00;99.90;;;;;;5077872;28;19949;-83
2021/11/20 13:58:01;;;;;;;;;;;11.90;99.90;;;;;;5073332;28;19947;-84
2021/11/20 14:00:27;;;;;;;;;;;11.90;99.90;;;;;;5076155;28;19935;-85
2021/11/20 14:02:56;;;;;;;;;;;11.90;99.90;;;;;;5077124;28;20002;-84
2021/11/20 14:05:27;;;;;;;;;;;11.90;99.90;;;;;;5078219;28;19927;-84
2021/11/20 14:08:00;;;;;;;;;;;11.80;99.90;;;;;;5079295;28;19925;-84
2021/11/20 14:10:36;;;;;;;;;;;11.90;99.90;;;;;;5079355;28;19984;-83
2021/11/20 14:13:05;;;;;;;;;;;11.80;99.90;;;;;;5079239;28;19991;-83
2021/11/20 14:15:42;;;;;;;;;;;11.80;99.90;;;;;;5079157;28;19985;-83
2021/11/20 14:18:10;;;;;;;;;;;11.80;99.90;;;;;;5074380;28;19932;-84
2021/11/20 14:20:41;;;;;;;;;;;11.80;99.90;;;;;;5065900;28;19925;-84
2021/11/20 14:23:09;;;;;;;;;;;11.80;99.90;;;;;;5066244;28;20002;-84
2021/11/20 14:25:36;;;;;;;;;;;11.70;99.90;;;;;;5065107;28;19931;-83
2021/11/20 14:28:03;;;;;;;;;;;12.30;99.90;;;;;;5064765;28;20392;-84
2021/11/20 14:30:37;;;;;;;;;;;11.70;99.90;;;;;;5065168;28;19929;-83
2021/11/20 14:33:06;;;;;;;;;;;11.70;99.90;;;;;;5067164;28;19971;-84